createdAt,value
2023-03-16T00:03:25.910Z,17.4
2023-03-16T00:09:19.620Z,17.3
2023-03-16T00:14:57.998Z,17.2
2023-03-16T00:26:13.653Z,19.1
2023-03-16T00:31:37.032Z,20.4
2023-03-16T00:37:30.436Z,19.4
2023-03-16T00:43:22.709Z,18.4
2023-03-16T00:49:01.232Z,17.8
2023-03-16T00:54:39.067Z,17.4
2023-03-16T01:00:32.087Z,17.3
2023-03-16T01:06:09.848Z,17.1
2023-03-16T01:17:08.445Z,18.8
2023-03-16T01:22:14.464Z,20.3
2023-03-16T01:28:06.554Z,19.9
2023-03-16T01:33:45.208Z,18.6
2023-03-16T01:39:37.908Z,17.9
2023-03-16T01:45:30.612Z,17.4
2023-03-16T01:50:38.782Z,17.3
2023-03-16T01:56:31.775Z,17.1
2023-03-16T02:07:17.168Z,17.6
2023-03-16T02:13:11.043Z,19.8
2023-03-16T02:24:42.364Z,16.6
2023-03-16T02:30:35.505Z,19.7
2023-03-16T02:36:29.470Z,20.4
2023-03-16T02:42:07.089Z,18.6
2023-03-16T02:47:45.782Z,17.9
2023-03-16T02:53:38.882Z,17.4
2023-03-16T02:59:16.445Z,17.3
2023-03-16T03:04:25.515Z,16.9
2023-03-16T03:10:17.996Z,16.9
2023-03-16T03:16:10.067Z,17.2
2023-03-16T03:22:02.567Z,19.8
2023-03-16T03:27:40.234Z,20.3
2023-03-16T03:33:32.772Z,18.5
2023-03-16T03:38:55.625Z,17.9
2023-03-16T03:44:32.864Z,17.4
2023-03-16T03:49:55.007Z,17.2
2023-03-16T04:00:57.389Z,16.9
2023-03-16T04:06:51.170Z,16.8
2023-03-16T04:12:28.904Z,19.4
2023-03-16T04:18:21.878Z,20.3
2023-03-16T04:23:43.898Z,18.9
2023-03-16T04:29:07.042Z,18.2
2023-03-16T04:34:44.569Z,17.5
2023-03-16T04:40:22.110Z,17.2
2023-03-16T04:51:37.835Z,16.9
2023-03-16T04:57:31.064Z,16.8
2023-03-16T05:03:24.741Z,18.9
2023-03-16T05:09:23.151Z,20.1
2023-03-16T05:14:28.863Z,19.2
2023-03-16T05:20:22.867Z,18.3
2023-03-16T05:26:15.445Z,17.6
2023-03-16T05:31:38.385Z,17.1
2023-03-16T05:37:19.848Z,17.1
2023-03-16T05:43:11.983Z,16.8
2023-03-16T05:48:50.481Z,16.7
2023-03-16T05:54:29.039Z,18.3
2023-03-16T06:00:22.765Z,19.8
2023-03-16T06:06:16.581Z,18.4
2023-03-16T06:12:10.433Z,14.6
2023-03-16T06:18:02.782Z,17.7
2023-03-16T06:23:54.488Z,19.8
2023-03-16T06:29:49.968Z,19.8
2023-03-16T06:35:45.318Z,18.3
2023-03-16T06:41:38.254Z,17.6
2023-03-16T06:47:19.222Z,17.1
2023-03-16T06:58:50.197Z,16.8
2023-03-16T07:04:43.672Z,16.7
2023-03-16T07:10:36.373Z,18.5
2023-03-16T07:16:33.177Z,19.9
2023-03-16T07:22:27.580Z,19.3
2023-03-16T07:28:20.719Z,18.1
2023-03-16T07:34:35.066Z,17.4
2023-03-16T07:40:13.399Z,17.1
2023-03-16T07:45:50.459Z,16.9
2023-03-16T07:51:27.147Z,16.8
2023-03-16T07:57:38.064Z,16.6
2023-03-16T08:03:32.276Z,19.1
2023-03-16T08:09:24.742Z,20.1
2023-03-16T08:15:06.351Z,18.9
2023-03-16T08:20:59.088Z,18
2023-03-16T08:27:04.171Z,17.4
2023-03-16T08:38:22.017Z,16.9
2023-03-16T08:44:11.194Z,17.7
2023-03-16T08:49:49.827Z,19.7
2023-03-16T08:55:53.475Z,20
2023-03-16T09:01:58.902Z,18.5
2023-03-16T09:08:00.180Z,17.8
2023-03-16T09:13:38.270Z,17.3
2023-03-16T09:25:27.012Z,16.8
2023-03-16T09:31:23.527Z,19.4
2023-03-16T09:37:02.703Z,20.3
2023-03-16T09:42:59.871Z,18.4
2023-03-16T09:48:37.102Z,17.6
2023-03-16T09:53:52.368Z,17.1
2023-03-16T09:59:29.791Z,16.9
2023-03-16T10:05:23.005Z,16.7
2023-03-16T10:11:14.941Z,18.4
2023-03-16T10:17:08.366Z,19.9
2023-03-16T10:23:00.798Z,19.1
2023-03-16T10:28:37.449Z,17.9
2023-03-16T10:34:18.056Z,17.2
2023-03-16T10:40:11.223Z,16.9
2023-03-16T10:46:05.420Z,16.8
2023-03-16T10:51:59.661Z,16.6
2023-03-16T10:57:53.240Z,19.4
2023-03-16T11:03:46.071Z,20.3
2023-03-16T11:09:40.276Z,18.5
2023-03-16T11:15:57.638Z,17.5
2023-03-16T11:21:50.662Z,16.9
2023-03-16T11:27:42.817Z,16.6
2023-03-16T11:33:38.725Z,16.3
2023-03-16T11:39:32.635Z,19.1
2023-03-16T11:45:25.361Z,20.1
2023-03-16T11:51:17.757Z,18.3
2023-03-16T11:57:09.895Z,17.6
2023-03-16T12:03:07.685Z,16.9
2023-03-16T12:08:55.111Z,16.8
2023-03-16T12:14:48.056Z,16.5
2023-03-16T12:20:57.968Z,18.5
2023-03-16T12:26:51.237Z,19.8
2023-03-16T12:32:28.463Z,18.5
2023-03-16T12:38:20.987Z,17.8
2023-03-16T12:44:13.725Z,17.1
2023-03-16T12:49:50.919Z,16.8
2023-03-16T12:55:31.265Z,16.7
2023-03-16T13:00:53.763Z,17.5
2023-03-16T13:06:35.140Z,19.4
2023-03-16T13:12:14.795Z,19.7
2023-03-16T13:17:56.444Z,18.1
2023-03-16T13:24:05.069Z,17.6
2023-03-16T13:40:12.269Z,16.8
2023-03-16T13:45:54.080Z,16.4
2023-03-16T13:51:30.560Z,16.1
2023-03-16T13:57:07.542Z,15.9
2023-03-16T14:02:45.790Z,15.6
2023-03-16T14:08:23.619Z,15.6
2023-03-16T14:14:20.788Z,15.4
2023-03-16T14:20:18.449Z,15.1
2023-03-16T14:26:19.048Z,15.1
2023-03-16T14:32:12.299Z,15.2
2023-03-16T14:37:51.275Z,15.2
2023-03-16T14:43:44.928Z,15.2
2023-03-16T14:49:38.337Z,15.3
2023-03-16T14:55:15.780Z,15.5
2023-03-16T15:01:26.053Z,15.6
2023-03-16T15:07:20.234Z,15.8
2023-03-16T15:13:14.958Z,15.8
2023-03-16T15:18:52.716Z,15.9
2023-03-16T15:24:44.319Z,16
2023-03-16T15:30:22.597Z,16.1
2023-03-16T15:36:00.182Z,16.3
2023-03-16T15:42:05.122Z,16.4
2023-03-16T15:47:57.856Z,16.5
2023-03-16T15:54:04.684Z,16.6
2023-03-16T16:00:12.090Z,16.6
2023-03-16T16:05:49.668Z,16.6
2023-03-16T16:11:11.118Z,16.6
2023-03-16T16:17:03.402Z,16.7
2023-03-16T16:23:09.637Z,16.8
2023-03-16T16:29:01.861Z,16.9
2023-03-16T16:39:28.294Z,16.9
2023-03-16T16:44:19.931Z,16.9
2023-03-16T16:49:27.656Z,16.9
2023-03-16T16:54:49.776Z,16.8
2023-03-16T17:00:38.333Z,16.8
2023-03-16T17:05:47.909Z,16.8
2023-03-16T17:11:10.412Z,16.9
2023-03-16T17:16:34.191Z,16.9
2023-03-16T17:22:27.167Z,16.8
2023-03-16T17:27:49.923Z,16.8
2023-03-16T17:33:28.629Z,16.8
2023-03-16T17:39:06.685Z,16.8
2023-03-16T17:44:50.410Z,16.8
2023-03-16T17:50:43.332Z,16.8
2023-03-16T17:56:36.203Z,16.7
2023-03-16T18:01:58.817Z,16.8
2023-03-16T18:07:54.583Z,16.8
2023-03-16T18:13:32.567Z,16.9
2023-03-16T18:24:33.608Z,17.1
2023-03-16T18:30:28.619Z,17.1
2023-03-16T18:36:22.020Z,17.1
2023-03-16T18:41:59.966Z,17.1
2023-03-16T18:53:31.104Z,17.1
2023-03-16T19:26:17.966Z,17.1
2023-03-16T19:31:56.241Z,16.9
2023-03-16T19:37:47.490Z,16.8
2023-03-16T19:43:25.173Z,16.9
2023-03-16T19:49:18.667Z,16.9
2023-03-16T19:55:11.171Z,16.9
2023-03-16T20:01:04.265Z,16.9
2023-03-16T20:06:58.379Z,16.9
2023-03-16T20:12:36.327Z,16.9
2023-03-16T20:29:13.818Z,17.1
2023-03-16T20:35:07.266Z,16.9
2023-03-16T20:40:45.833Z,16.9
2023-03-16T20:46:24.048Z,16.8
2023-03-16T20:51:45.323Z,16.8
2023-03-16T20:57:23.013Z,16.6
2023-03-16T21:03:16.287Z,16.6
2023-03-16T21:09:09.498Z,16.4
2023-03-16T21:14:56.179Z,16.3
2023-03-16T21:20:34.093Z,16.2
2023-03-16T21:26:27.275Z,16.1
2023-03-16T21:32:20.691Z,16
2023-03-16T21:38:13.731Z,15.9
2023-03-16T21:44:08.585Z,15.8
2023-03-16T21:50:02.317Z,15.8
2023-03-16T21:55:41.498Z,15.6
2023-03-16T22:01:04.936Z,17.7
2023-03-16T22:07:26.133Z,18.4
2023-03-16T22:13:03.296Z,18.2
2023-03-16T22:18:56.595Z,17.9
2023-03-16T22:24:35.034Z,17.8
2023-03-16T22:30:12.214Z,17.6
2023-03-16T22:36:04.777Z,17.6
2023-03-16T22:41:57.826Z,17.4
2023-03-16T22:47:34.043Z,17.4
2023-03-16T22:53:27.444Z,17.3
2023-03-16T22:59:20.853Z,20
2023-03-16T23:05:14.958Z,19.6
2023-03-16T23:16:48.064Z,18.3
2023-03-16T23:22:54.454Z,17.9
2023-03-16T23:28:39.094Z,17.7
2023-03-16T23:34:17.655Z,17.6
2023-03-16T23:39:54.582Z,17.4
2023-03-16T23:45:32.310Z,17.4
2023-03-16T23:51:10.208Z,17.2
2023-03-16T23:56:46.792Z,18.9
